createdAt,value
2023-01-26T00:02:29.247Z,101313.22
2023-01-26T00:04:59.875Z,101310.78
2023-01-26T00:07:31.324Z,101306.66
2023-01-26T00:10:03.276Z,101309.78
2023-01-26T00:12:33.504Z,101308.13
2023-01-26T00:15:03.959Z,101300.88
2023-01-26T00:17:34.050Z,101304.03
2023-01-26T00:20:04.191Z,101303.22
2023-01-26T00:22:35.162Z,101308.47
2023-01-26T00:25:08.327Z,101312.91
2023-01-26T00:27:38.753Z,101305.31
2023-01-26T00:30:11.130Z,101301.38
2023-01-26T00:32:42.231Z,101304.19
2023-01-26T00:35:13.231Z,101303.38
2023-01-26T00:37:45.144Z,101309.28
2023-01-26T00:40:18.107Z,101302.38
2023-01-26T00:42:48.135Z,101309.47
2023-01-26T00:45:20.486Z,101303.72
2023-01-26T00:47:50.889Z,101307.16
2023-01-26T00:50:21.514Z,101298.13
2023-01-26T00:52:51.521Z,101306.69
2023-01-26T00:55:24.305Z,101303.25
2023-01-26T00:57:54.694Z,101298.13
2023-01-26T01:00:24.879Z,101302.72
2023-01-26T01:02:56.757Z,101308.66
2023-01-26T01:05:29.774Z,101308.16
2023-01-26T01:08:00.710Z,101308.16
2023-01-26T01:10:33.209Z,101308.66
2023-01-26T01:13:03.596Z,101313.91
2023-01-26T01:15:33.628Z,101308.31
2023-01-26T01:18:04.070Z,101306.38
2023-01-26T01:20:34.621Z,101309.16
2023-01-26T01:23:04.980Z,101315.06
2023-01-26T01:25:36.892Z,101319.03
2023-01-26T01:28:11.172Z,101306.81
2023-01-26T01:30:41.742Z,101310.75
2023-01-26T01:33:11.475Z,101316.03
2023-01-26T01:35:44.136Z,101317.69
2023-01-26T01:38:13.896Z,101311.25
2023-01-26T01:40:48.609Z,101317.69
2023-01-26T01:43:18.517Z,101319.66
2023-01-26T01:45:50.058Z,101316.34
2023-01-26T01:48:27.633Z,101310.25
2023-01-26T01:51:02.412Z,101312.91
2023-01-26T01:53:38.538Z,101313.75
2023-01-26T01:56:19.631Z,101310.94
2023-01-26T01:58:53.947Z,101311.75
2023-01-26T02:01:24.583Z,101316.53
2023-01-26T02:03:59.507Z,101315.06
2023-01-26T02:06:36.740Z,101313.41
2023-01-26T02:09:09.335Z,101317.34
2023-01-26T02:11:48.325Z,101311.25
2023-01-26T02:14:19.782Z,101315.53
2023-01-26T02:16:52.622Z,101326.22
2023-01-26T02:19:39.097Z,101320.13
2023-01-26T02:22:19.379Z,101320.28
2023-01-26T02:24:49.937Z,101316.50
2023-01-26T02:27:21.859Z,101324.41
2023-01-26T02:29:53.600Z,101325.88
2023-01-26T02:32:24.218Z,101327.34
2023-01-26T02:35:05.654Z,101333.56
2023-01-26T02:37:35.715Z,101339.00
2023-01-26T02:40:15.311Z,101339.97
2023-01-26T02:42:47.699Z,101343.75
2023-01-26T02:45:20.701Z,101335.53
2023-01-26T02:47:50.848Z,101339.28
2023-01-26T02:50:34.840Z,101344.69
2023-01-26T02:53:07.419Z,101340.06
2023-01-26T02:55:38.423Z,101338.75
2023-01-26T02:58:11.081Z,101334.13
2023-01-26T03:00:43.082Z,101335.91
2023-01-26T03:03:17.900Z,101337.09
2023-01-26T03:05:49.950Z,101338.22
2023-01-26T03:08:20.745Z,101338.53
2023-01-26T03:10:51.427Z,101343.81
2023-01-26T03:13:23.173Z,101346.63
2023-01-26T03:15:55.088Z,101346.63
2023-01-26T03:18:48.893Z,101355.47
2023-01-26T03:21:36.591Z,101354.31
2023-01-26T03:24:24.566Z,101355.69
2023-01-26T03:27:11.397Z,101358.78
2023-01-26T03:29:42.958Z,101358.78
2023-01-26T03:32:13.701Z,101346.28
2023-01-26T03:34:44.132Z,101352.19
2023-01-26T03:37:14.216Z,101350.81
2023-01-26T03:40:01.305Z,101347.56
2023-01-26T03:42:48.042Z,101337.00
2023-01-26T03:45:37.178Z,101351.31
2023-01-26T03:48:27.199Z,101345.72
2023-01-26T03:51:14.190Z,101343.22
2023-01-26T03:54:02.445Z,101346.53
2023-01-26T03:56:34.697Z,101338.16
2023-01-26T03:59:10.514Z,101349.31
2023-01-26T04:02:03.014Z,101343.75
2023-01-26T04:04:50.100Z,101344.53
2023-01-26T04:07:38.329Z,101357.72
2023-01-26T04:10:09.767Z,101354.41
2023-01-26T04:12:41.436Z,101358.03
2023-01-26T04:15:29.425Z,101363.13
2023-01-26T04:18:25.729Z,101358.66
2023-01-26T04:21:13.046Z,101370.19
2023-01-26T04:23:43.536Z,101366.53
2023-01-26T04:26:13.926Z,101372.97
2023-01-26T04:28:44.495Z,101376.56
2023-01-26T04:31:16.534Z,101371.50
2023-01-26T04:33:48.420Z,101367.84
2023-01-26T04:36:18.158Z,101367.03
2023-01-26T04:38:48.429Z,101364.59
2023-01-26T04:41:18.565Z,101362.94
2023-01-26T04:43:49.012Z,101366.03
2023-01-26T04:46:19.680Z,101360.78
2023-01-26T04:48:52.123Z,101368.66
2023-01-26T04:51:24.505Z,101360.59
2023-01-26T04:53:55.008Z,101359.75
2023-01-26T04:56:28.514Z,101364.19
2023-01-26T04:59:01.985Z,101367.84
2023-01-26T05:01:32.657Z,101369.50
2023-01-26T05:04:05.715Z,101369.50
2023-01-26T05:06:36.662Z,101373.09
2023-01-26T05:09:07.638Z,101378.38
2023-01-26T05:11:41.055Z,101375.59
2023-01-26T05:14:11.386Z,101377.19
2023-01-26T05:16:41.902Z,101377.06
2023-01-26T05:19:14.276Z,101378.56
2023-01-26T05:21:44.652Z,101378.31
2023-01-26T05:24:15.213Z,101380.53
2023-01-26T05:26:45.544Z,101380.91
2023-01-26T05:29:16.079Z,101392.78
2023-01-26T05:34:17.914Z,101395.00
2023-01-26T05:36:48.262Z,101403.63
2023-01-26T05:39:18.708Z,101405.13
2023-01-26T05:41:48.883Z,101399.19
2023-01-26T05:44:19.321Z,101408.41
2023-01-26T05:46:49.872Z,101410.69
2023-01-26T05:49:21.801Z,101411.69
2023-01-26T05:51:53.406Z,101413.84
2023-01-26T05:54:23.626Z,101416.81
2023-01-26T05:56:54.656Z,101416.31
2023-01-26T05:59:25.128Z,101413.47
2023-01-26T06:01:55.617Z,101413.16
2023-01-26T06:04:28.433Z,101418.59
2023-01-26T06:07:00.740Z,101417.22
2023-01-26T06:09:30.728Z,101416.06
2023-01-26T06:12:01.239Z,101413.00
2023-01-26T06:14:32.694Z,101416.03
2023-01-26T06:17:02.843Z,101412.59
2023-01-26T06:19:36.457Z,101409.00
2023-01-26T06:22:06.897Z,101420.00
2023-01-26T06:24:37.464Z,101422.81
2023-01-26T06:27:19.080Z,101415.06
2023-01-26T06:29:49.869Z,101417.69
2023-01-26T06:32:20.564Z,101415.53
2023-01-26T06:34:53.881Z,101416.59
2023-01-26T06:37:26.328Z,101422.88
2023-01-26T06:39:57.171Z,101417.75
2023-01-26T06:42:27.624Z,101414.91
2023-01-26T06:44:59.553Z,101422.19
2023-01-26T06:47:29.629Z,101419.47
2023-01-26T06:50:02.684Z,101426.38
2023-01-26T06:52:38.168Z,101419.91
2023-01-26T06:55:17.852Z,101419.41
2023-01-26T06:57:48.409Z,101423.47
2023-01-26T07:00:20.140Z,101429.16
2023-01-26T07:02:50.536Z,101434.56
2023-01-26T07:05:22.666Z,101420.84
2023-01-26T07:07:52.402Z,101434.97
2023-01-26T07:10:22.728Z,101434.91
2023-01-26T07:12:56.040Z,101437.22
2023-01-26T07:15:26.046Z,101429.47
2023-01-26T07:17:56.774Z,101428.22
2023-01-26T07:20:29.630Z,101424.09
2023-01-26T07:23:02.197Z,101430.00
2023-01-26T07:25:32.926Z,101426.66
2023-01-26T07:28:03.071Z,101425.25
2023-01-26T07:30:33.495Z,101438.09
2023-01-26T07:33:03.946Z,101423.78
2023-01-26T07:35:36.363Z,101424.72
2023-01-26T07:38:07.947Z,101430.19
2023-01-26T07:40:38.587Z,101429.13
2023-01-26T07:43:09.708Z,101433.44
2023-01-26T07:45:39.653Z,101424.72
2023-01-26T07:48:10.060Z,101429.41
2023-01-26T07:50:42.680Z,101434.47
2023-01-26T07:53:13.295Z,101428.56
2023-01-26T07:55:44.159Z,101429.59
2023-01-26T07:58:15.605Z,101431.03
2023-01-26T08:00:47.496Z,101421.47
2023-01-26T08:03:18.106Z,101420.84
2023-01-26T08:05:50.364Z,101417.78
2023-01-26T08:08:21.227Z,101409.41
2023-01-26T08:10:51.501Z,101407.94
2023-01-26T08:13:34.466Z,101404.03
2023-01-26T08:16:07.445Z,101398.91
2023-01-26T08:18:38.166Z,101400.84
2023-01-26T08:21:11.375Z,101403.22
2023-01-26T08:23:42.355Z,101399.56
2023-01-26T08:26:15.536Z,101394.81
2023-01-26T08:28:46.438Z,101386.81
2023-01-26T08:31:21.179Z,101390.97
2023-01-26T08:33:53.804Z,101388.97
2023-01-26T08:36:25.977Z,101383.38
2023-01-26T08:38:57.858Z,101383.81
2023-01-26T08:41:28.326Z,101376.94
2023-01-26T08:43:59.779Z,101370.47
2023-01-26T08:46:30.267Z,101371.31
2023-01-26T08:49:01.299Z,101357.59
2023-01-26T08:51:33.912Z,101355.66
2023-01-26T08:54:04.262Z,101345.56
2023-01-26T08:56:34.173Z,101341.53
2023-01-26T08:59:04.292Z,101333.78
2023-01-26T09:01:34.665Z,101330.94
2023-01-26T09:04:06.283Z,101329.31
2023-01-26T09:06:38.607Z,101324.84
2023-01-26T09:09:19.006Z,101327.66
2023-01-26T09:11:48.879Z,101327.22
2023-01-26T09:14:18.793Z,101325.22
2023-01-26T09:16:48.943Z,101311.81
2023-01-26T09:19:19.033Z,101317.44
2023-01-26T09:21:56.307Z,101309.69
2023-01-26T09:24:27.225Z,101303.13
2023-01-26T09:26:57.708Z,101302.97
2023-01-26T09:29:28.087Z,101303.22
2023-01-26T09:31:58.920Z,101291.78
2023-01-26T09:34:29.565Z,101287.69
2023-01-26T09:37:02.414Z,101288.03
2023-01-26T09:39:32.577Z,101289.16
2023-01-26T09:42:28.169Z,101283.84
2023-01-26T09:45:18.271Z,101278.47
2023-01-26T09:48:13.404Z,101277.56
2023-01-26T09:50:51.500Z,101263.72
2023-01-26T09:53:31.472Z,101261.59
2023-01-26T09:56:03.276Z,101256.63
2023-01-26T09:58:43.657Z,101251.66
2023-01-26T10:01:23.422Z,101245.06
2023-01-26T10:04:06.826Z,101237.22
2023-01-26T10:06:40.615Z,101233.38
2023-01-26T10:09:25.260Z,101234.06
2023-01-26T10:12:00.572Z,101233.03
2023-01-26T10:14:41.037Z,101230.44
2023-01-26T10:17:22.011Z,101230.63
2023-01-26T10:19:59.514Z,101232.03
2023-01-26T10:22:39.236Z,101231.09
2023-01-26T10:25:19.334Z,101224.94
2023-01-26T10:27:50.262Z,101230.06
2023-01-26T10:30:23.385Z,101226.72
2023-01-26T10:32:55.490Z,101226.19
2023-01-26T10:35:27.887Z,101226.84
2023-01-26T10:37:58.948Z,101222.31
2023-01-26T10:40:31.387Z,101214.94
2023-01-26T10:43:02.713Z,101210.41
2023-01-26T10:45:35.171Z,101200.97
2023-01-26T10:48:19.960Z,101204.03
2023-01-26T10:50:50.733Z,101209.88
2023-01-26T10:53:28.725Z,101212.97
2023-01-26T10:56:07.360Z,101207.19
2023-01-26T10:58:52.013Z,101210.53
2023-01-26T11:01:28.111Z,101213.13
2023-01-26T11:04:10.624Z,101208.13
2023-01-26T11:06:42.207Z,101207.97
2023-01-26T11:09:20.175Z,101204.69
2023-01-26T11:12:03.620Z,101202.59
2023-01-26T11:14:35.654Z,101194.84
2023-01-26T11:17:25.106Z,101188.34
2023-01-26T11:20:19.701Z,101185.78
2023-01-26T11:23:04.514Z,101190.16
2023-01-26T11:25:50.355Z,101190.53
2023-01-26T11:28:46.438Z,101193.25
2023-01-26T11:31:33.330Z,101194.78
2023-01-26T11:34:27.246Z,101197.06
2023-01-26T11:37:25.196Z,101193.25
2023-01-26T11:40:06.701Z,101200.78
2023-01-26T11:42:50.041Z,101199.50
2023-01-26T11:45:28.374Z,101201.06
2023-01-26T11:48:16.734Z,101196.59
2023-01-26T11:50:57.373Z,101194.59
2023-01-26T11:54:05.319Z,101181.22
2023-01-26T11:56:51.365Z,101177.97
2023-01-26T11:59:29.009Z,101182.31
2023-01-26T12:02:06.825Z,101185.03
2023-01-26T12:04:46.248Z,101179.31
2023-01-26T12:07:25.531Z,101183.69
2023-01-26T12:09:58.307Z,101179.94
2023-01-26T12:12:40.381Z,101182.66
2023-01-26T12:15:19.416Z,101180.47
2023-01-26T12:18:02.175Z,101176.41
2023-01-26T12:20:41.967Z,101179.91
2023-01-26T12:23:29.315Z,101172.22
2023-01-26T12:26:05.840Z,101172.00
2023-01-26T12:28:46.687Z,101174.38
2023-01-26T12:31:32.391Z,101168.28
2023-01-26T12:34:04.495Z,101162.16
2023-01-26T12:36:55.351Z,101158.16
2023-01-26T12:39:38.527Z,101164.16
2023-01-26T12:42:27.729Z,101162.53
2023-01-26T12:45:02.632Z,101160.44
2023-01-26T12:47:39.086Z,101158.78
2023-01-26T12:50:24.883Z,101160.81
2023-01-26T12:53:00.235Z,101157.53
2023-01-26T12:55:39.059Z,101166.66
2023-01-26T12:58:19.214Z,101172.22
2023-01-26T13:01:04.002Z,101175.63
2023-01-26T13:03:42.304Z,101179.91
2023-01-26T13:06:29.991Z,101176.53
2023-01-26T13:09:20.407Z,101172.06
2023-01-26T13:11:54.446Z,101168.41
2023-01-26T13:14:35.576Z,101164.00
2023-01-26T13:17:54.104Z,101164.31
2023-01-26T13:20:47.419Z,101168.78
2023-01-26T13:23:45.929Z,101171.97
2023-01-26T13:26:21.556Z,101168.69
2023-01-26T13:28:53.890Z,101179.13
2023-01-26T13:31:37.094Z,101179.13
2023-01-26T13:34:16.347Z,101176.66
2023-01-26T13:36:50.436Z,101186.63
2023-01-26T13:39:38.194Z,101194.25
2023-01-26T13:42:23.530Z,101189.00
2023-01-26T13:45:03.548Z,101181.72
2023-01-26T13:47:42.522Z,101186.88
2023-01-26T13:50:33.366Z,101182.78
2023-01-26T13:53:04.697Z,101181.16
2023-01-26T13:55:42.708Z,101189.59
2023-01-26T13:58:20.272Z,101186.31
2023-01-26T14:01:04.692Z,101175.78
2023-01-26T14:03:36.235Z,101176.03
2023-01-26T14:06:11.210Z,101169.97
2023-01-26T14:08:43.223Z,101179.06
2023-01-26T14:11:25.213Z,101187.03
2023-01-26T14:13:59.074Z,101184.13
2023-01-26T14:16:34.749Z,101187.28
2023-01-26T14:19:15.929Z,101191.28
2023-01-26T14:21:53.107Z,101187.63
2023-01-26T14:24:35.233Z,101192.44
2023-01-26T14:27:09.943Z,101187.63
2023-01-26T14:29:42.406Z,101191.28
2023-01-26T14:32:19.017Z,101202.53
2023-01-26T14:34:57.293Z,101201.34
2023-01-26T14:37:28.105Z,101193.25
2023-01-26T14:40:25.870Z,101191.63
2023-01-26T14:42:59.895Z,101189.16
2023-01-26T14:45:34.619Z,101196.75
2023-01-26T14:48:10.903Z,101200.78
2023-01-26T14:50:43.829Z,101196.31
2023-01-26T14:53:24.350Z,101189.06
2023-01-26T14:55:56.291Z,101201.47
2023-01-26T14:58:33.915Z,101202.66
2023-01-26T15:01:05.448Z,101206.63
2023-01-26T15:03:39.734Z,101201.38
2023-01-26T15:06:25.083Z,101198.91
2023-01-26T15:09:00.887Z,101203.25
2023-01-26T15:11:53.881Z,101199.94
2023-01-26T15:14:51.006Z,101207.47
2023-01-26T15:17:33.411Z,101200.56
2023-01-26T15:20:03.838Z,101205.72
2023-01-26T15:22:34.799Z,101202.06
2023-01-26T15:25:20.450Z,101195.66
2023-01-26T15:27:58.230Z,101190.03
2023-01-26T15:30:34.477Z,101184.72
2023-01-26T15:33:05.439Z,101185.09
2023-01-26T15:35:37.623Z,101192.72
2023-01-26T15:38:11.982Z,101178.19
2023-01-26T15:40:42.949Z,101178.19
2023-01-26T15:43:17.663Z,101178.56
2023-01-26T15:45:57.183Z,101181.72
2023-01-26T15:48:32.063Z,101179.25
2023-01-26T15:51:02.228Z,101180.44
2023-01-26T15:53:32.540Z,101175.16
2023-01-26T15:56:11.842Z,101181.97
2023-01-26T15:58:42.655Z,101171.88
2023-01-26T16:01:19.549Z,101171.88
2023-01-26T16:03:50.553Z,101175.88
2023-01-26T16:06:28.153Z,101172.22
2023-01-26T16:08:59.975Z,101174.22
2023-01-26T16:11:34.559Z,101185.47
2023-01-26T16:14:05.241Z,101187.81
2023-01-26T16:16:37.255Z,101188.16
2023-01-26T16:19:09.239Z,101194.13
2023-01-26T16:21:41.480Z,101193.31
2023-01-26T16:24:14.069Z,101199.28
2023-01-26T16:26:44.828Z,101200.47
2023-01-26T16:29:15.445Z,101205.59
2023-01-26T16:31:47.869Z,101198.34
2023-01-26T16:34:18.240Z,101207.94
2023-01-26T16:36:48.061Z,101206.63
2023-01-26T16:39:18.308Z,101207.00
2023-01-26T16:41:53.685Z,101212.13
2023-01-26T16:44:24.773Z,101211.66
2023-01-26T16:46:56.715Z,101218.44
2023-01-26T16:49:27.347Z,101217.16
2023-01-26T16:51:57.471Z,101223.13
2023-01-26T16:54:28.065Z,101211.06
2023-01-26T16:56:58.761Z,101227.44
2023-01-26T16:59:29.325Z,101223.00
2023-01-26T17:02:02.649Z,101226.97
2023-01-26T17:04:33.406Z,101224.50
2023-01-26T17:07:04.110Z,101236.91
2023-01-26T17:09:34.501Z,101240.09
2023-01-26T17:12:05.884Z,101243.25
2023-01-26T17:14:36.602Z,101248.38
2023-01-26T17:17:08.398Z,101250.38
2023-01-26T17:19:39.824Z,101260.78
2023-01-26T17:22:09.973Z,101252.72
2023-01-26T17:24:40.949Z,101248.28
2023-01-26T17:27:12.329Z,101242.19
2023-01-26T17:29:43.613Z,101253.75
2023-01-26T17:32:16.634Z,101261.34
2023-01-26T17:34:47.746Z,101258.06
2023-01-26T17:37:18.692Z,101257.25
2023-01-26T17:39:49.863Z,101247.19
2023-01-26T17:42:20.713Z,101246.72
2023-01-26T17:44:51.522Z,101257.47
2023-01-26T17:47:25.033Z,101250.22
2023-01-26T17:49:56.194Z,101261.78
2023-01-26T17:52:27.122Z,101260.16
2023-01-26T17:54:57.879Z,101264.47
2023-01-26T17:57:29.270Z,101265.66
2023-01-26T17:59:59.656Z,101268.31
2023-01-26T18:02:32.330Z,101277.06
2023-01-26T18:05:03.522Z,101269.38
2023-01-26T18:07:34.017Z,101261.28
2023-01-26T18:10:06.126Z,101255.22
2023-01-26T18:12:38.091Z,101252.72
2023-01-26T18:15:10.116Z,101244.66
2023-01-26T18:17:43.117Z,101242.53
2023-01-26T18:20:15.738Z,101239.25
2023-01-26T18:22:46.258Z,101241.59
2023-01-26T18:25:19.678Z,101245.56
2023-01-26T18:27:50.588Z,101236.63
2023-01-26T18:30:33.965Z,101238.63
2023-01-26T18:33:06.874Z,101236.16
2023-01-26T18:35:38.128Z,101232.88
2023-01-26T18:38:08.308Z,101248.91
2023-01-26T18:40:41.323Z,101246.44
2023-01-26T18:43:12.750Z,101242.00
2023-01-26T18:45:44.653Z,101246.28
2023-01-26T18:48:19.548Z,101247.47
2023-01-26T18:50:51.843Z,101243.03
2023-01-26T18:53:22.173Z,101236.94
2023-01-26T18:55:55.575Z,101242.88
2023-01-26T18:58:25.451Z,101244.38
2023-01-26T19:00:55.974Z,101249.19
2023-01-26T19:03:28.225Z,101253.16
2023-01-26T19:05:58.803Z,101254.66
2023-01-26T19:08:28.460Z,101249.38
2023-01-26T19:10:58.383Z,101253.72
2023-01-26T19:13:28.771Z,101243.16
2023-01-26T19:15:58.871Z,101246.69
2023-01-26T19:18:32.307Z,101247.22
2023-01-26T19:21:04.860Z,101245.75
2023-01-26T19:23:37.983Z,101249.94
2023-01-26T19:26:14.243Z,101243.38
2023-01-26T19:28:50.480Z,101247.69
2023-01-26T19:31:22.134Z,101249.69
2023-01-26T19:33:59.534Z,101246.03
2023-01-26T19:36:31.773Z,101242.44
2023-01-26T19:39:02.963Z,101244.38
2023-01-26T19:41:33.149Z,101237.97
2023-01-26T19:44:03.492Z,101231.88
2023-01-26T19:46:35.873Z,101233.03
2023-01-26T19:49:12.119Z,101228.59
2023-01-26T19:51:41.976Z,101227.28
2023-01-26T19:54:13.515Z,101225.66
2023-01-26T19:56:43.678Z,101224.00
2023-01-26T19:59:15.108Z,101219.56
2023-01-26T20:01:45.192Z,101212.34
2023-01-26T20:04:18.138Z,101213.50
2023-01-26T20:06:51.929Z,101217.44
2023-01-26T20:09:22.246Z,101214.13
2023-01-26T20:11:53.234Z,101213.28
2023-01-26T20:14:23.600Z,101210.03
2023-01-26T20:16:54.067Z,101201.16
2023-01-26T20:19:26.584Z,101211.88
2023-01-26T20:21:57.509Z,101198.22
2023-01-26T20:24:27.991Z,101204.13
2023-01-26T20:26:58.700Z,101200.03
2023-01-26T20:29:29.109Z,101203.19
2023-01-26T20:31:59.745Z,101199.41
2023-01-26T20:34:32.595Z,101200.56
2023-01-26T20:37:04.580Z,101200.13
2023-01-26T20:39:34.942Z,101194.03
2023-01-26T20:42:05.475Z,101183.84
2023-01-26T20:44:35.973Z,101181.22
2023-01-26T20:47:07.763Z,101180.25
2023-01-26T20:49:40.296Z,101173.34
2023-01-26T20:52:10.719Z,101170.88
2023-01-26T20:54:40.612Z,101156.88
2023-01-26T20:57:10.992Z,101155.22
2023-01-26T20:59:41.275Z,101153.28
2023-01-26T21:02:16.753Z,101142.88
2023-01-26T21:04:49.234Z,101139.25
2023-01-26T21:07:19.647Z,101138.44
2023-01-26T21:09:49.659Z,101137.28
2023-01-26T21:12:20.257Z,101136.78
2023-01-26T21:14:50.768Z,101132.34
2023-01-26T21:17:22.870Z,101136.78
2023-01-26T21:19:54.537Z,101132.34
2023-01-26T21:22:24.978Z,101122.28
2023-01-26T21:24:55.389Z,101124.28
2023-01-26T21:27:25.760Z,101122.63
2023-01-26T21:29:55.714Z,101117.38
2023-01-26T21:32:26.351Z,101114.59
2023-01-26T21:34:58.536Z,101106.50
2023-01-26T21:37:28.635Z,101105.69
2023-01-26T21:39:58.445Z,101106.84
2023-01-26T21:42:28.977Z,101094.84
2023-01-26T21:45:15.969Z,101099.97
2023-01-26T21:48:06.309Z,101089.06
2023-01-26T21:50:56.052Z,101092.22
2023-01-26T21:53:26.442Z,101086.97
2023-01-26T21:55:56.513Z,101083.34
2023-01-26T21:58:43.631Z,101076.09
2023-01-26T22:01:14.211Z,101065.91
2023-01-26T22:03:44.751Z,101070.72
2023-01-26T22:06:16.809Z,101071.88
2023-01-26T22:08:46.777Z,101068.56
2023-01-26T22:11:17.302Z,101073.38
2023-01-26T22:13:48.561Z,101064.13
2023-01-26T22:16:18.606Z,101057.25
2023-01-26T22:18:50.136Z,101067.63
2023-01-26T22:21:23.571Z,101065.13
2023-01-26T22:23:55.857Z,101054.63
2023-01-26T22:26:26.658Z,101049.34
2023-01-26T22:28:59.423Z,101046.53
2023-01-26T22:31:31.915Z,101042.09
2023-01-26T22:34:03.337Z,101039.31
2023-01-26T22:36:35.279Z,101039.66
2023-01-26T22:39:06.126Z,101043.59
2023-01-26T22:41:38.338Z,101037.19
2023-01-26T22:44:09.074Z,101031.91
2023-01-26T22:46:39.058Z,101033.06
2023-01-26T22:49:08.853Z,101027.47
2023-01-26T22:51:41.760Z,101032.28
2023-01-26T22:54:11.707Z,101037.38
2023-01-26T22:56:42.696Z,101034.59
2023-01-26T22:59:12.849Z,101028.19
2023-01-26T23:01:43.271Z,101024.06
2023-01-26T23:04:13.340Z,101021.59
2023-01-26T23:06:45.450Z,101027.56
2023-01-26T23:09:15.980Z,101020.31
2023-01-26T23:11:46.062Z,101021.47
2023-01-26T23:14:16.704Z,101021.81
2023-01-26T23:16:47.152Z,101020.97
2023-01-26T23:19:17.752Z,101032.53
2023-01-26T23:21:49.531Z,101023.28
2023-01-26T23:24:19.422Z,101019.69
2023-01-26T23:26:49.907Z,101024.44
2023-01-26T23:29:20.325Z,101029.59
2023-01-26T23:31:50.882Z,101028.25
2023-01-26T23:34:21.654Z,101021.38
2023-01-26T23:36:54.732Z,101026.47
2023-01-26T23:39:25.105Z,101037.22
2023-01-26T23:41:55.012Z,101043.97
2023-01-26T23:44:25.183Z,101035.88
2023-01-26T23:46:55.785Z,101034.25
2023-01-26T23:49:26.075Z,101042.66
2023-01-26T23:51:58.061Z,101045.44
2023-01-26T23:54:28.723Z,101044.63
2023-01-26T23:56:59.147Z,101043.47
2023-01-26T23:59:29.737Z,101039.03
